createdAt,value
2022-08-31T00:03:55.667Z,68.16
2022-08-31T00:08:57.708Z,68.25
2022-08-31T00:14:02.207Z,68.80
2022-08-31T00:19:05.452Z,69.07
2022-08-31T00:24:07.228Z,69.70
2022-08-31T00:29:09.630Z,70.37
2022-08-31T00:34:11.555Z,70.52
2022-08-31T00:39:14.906Z,70.74
2022-08-31T00:44:17.231Z,71.00
2022-08-31T00:49:31.222Z,71.03
2022-08-31T00:54:36.331Z,71.25
2022-08-31T00:59:40.969Z,71.24
2022-08-31T01:04:42.534Z,71.57
2022-08-31T01:09:53.259Z,71.40
2022-08-31T01:14:58.519Z,71.58
2022-08-31T01:20:15.451Z,71.61
2022-08-31T01:25:18.773Z,71.16
2022-08-31T01:30:23.543Z,71.47
2022-08-31T01:35:25.231Z,71.61
2022-08-31T01:40:34.089Z,72.25
2022-08-31T01:45:35.660Z,71.83
2022-08-31T01:50:37.181Z,71.90
2022-08-31T01:55:39.324Z,71.83
2022-08-31T02:00:41.391Z,71.41
2022-08-31T02:05:42.994Z,71.21
2022-08-31T02:10:44.558Z,70.96
2022-08-31T02:15:46.080Z,71.01
2022-08-31T02:20:47.570Z,70.40
2022-08-31T02:25:49.401Z,70.13
2022-08-31T02:30:50.909Z,70.31
2022-08-31T02:35:53.812Z,69.42
2022-08-31T02:40:55.401Z,68.57
2022-08-31T02:45:56.978Z,68.50
2022-08-31T02:51:05.682Z,68.61
2022-08-31T02:56:08.078Z,68.38
2022-08-31T03:01:10.347Z,67.78
2022-08-31T03:06:11.909Z,68.04
2022-08-31T03:11:14.194Z,68.03
2022-08-31T03:16:15.957Z,68.02
2022-08-31T03:21:17.499Z,67.62
2022-08-31T03:26:19.018Z,67.43
2022-08-31T03:31:20.599Z,67.85
2022-08-31T03:36:22.187Z,67.47
2022-08-31T03:41:25.378Z,67.52
2022-08-31T03:46:26.912Z,66.90
2022-08-31T03:51:28.951Z,65.89
2022-08-31T03:56:30.749Z,62.92
2022-08-31T04:01:32.304Z,62.14
2022-08-31T04:06:33.916Z,61.04
2022-08-31T04:11:45.136Z,60.36
2022-08-31T04:16:47.277Z,60.79
2022-08-31T04:21:50.090Z,61.72
2022-08-31T04:26:52.943Z,62.78
2022-08-31T04:31:54.483Z,63.80
2022-08-31T04:36:56.041Z,64.58
2022-08-31T04:41:57.523Z,65.70
2022-08-31T04:46:59.129Z,67.16
2022-08-31T04:52:00.721Z,67.58
2022-08-31T04:57:04.807Z,68.30
2022-08-31T05:02:06.401Z,68.64
2022-08-31T05:07:07.978Z,69.25
2022-08-31T05:12:09.476Z,69.84
2022-08-31T05:17:14.899Z,70.49
2022-08-31T05:22:16.841Z,71.23
2022-08-31T05:27:18.338Z,71.74
2022-08-31T05:32:19.860Z,72.19
2022-08-31T05:37:24.288Z,72.69
2022-08-31T05:42:26.240Z,73.05
2022-08-31T05:47:28.689Z,73.42
2022-08-31T05:52:30.237Z,73.67
2022-08-31T05:57:31.826Z,73.82
2022-08-31T06:02:35.084Z,74.02
2022-08-31T06:07:36.586Z,74.79
2022-08-31T06:12:39.042Z,74.87
2022-08-31T06:17:40.546Z,74.88
2022-08-31T06:22:45.134Z,74.88
2022-08-31T06:27:50.410Z,74.23
2022-08-31T06:32:54.698Z,74.00
2022-08-31T06:37:59.608Z,73.90
2022-08-31T06:43:01.110Z,73.32
2022-08-31T06:48:04.556Z,72.74
2022-08-31T06:53:06.062Z,71.97
2022-08-31T06:58:07.559Z,69.93
2022-08-31T07:03:24.242Z,68.75
2022-08-31T07:08:25.689Z,66.26
2022-08-31T07:13:27.215Z,64.15
2022-08-31T07:18:28.691Z,63.25
2022-08-31T07:23:30.191Z,62.85
2022-08-31T07:28:31.875Z,63.95
2022-08-31T07:33:38.962Z,65.29
2022-08-31T07:39:00.416Z,65.51
2022-08-31T07:44:02.012Z,65.57
2022-08-31T07:49:08.879Z,65.19
2022-08-31T07:54:10.941Z,65.16
2022-08-31T07:59:14.947Z,64.77
2022-08-31T08:04:26.234Z,64.20
2022-08-31T08:09:29.909Z,62.76
2022-08-31T08:14:36.264Z,63.21
2022-08-31T08:19:37.760Z,62.35
2022-08-31T08:24:40.039Z,61.83
2022-08-31T08:29:42.563Z,61.66
2022-08-31T08:34:44.751Z,61.39
2022-08-31T08:39:46.231Z,61.39
2022-08-31T08:44:48.104Z,61.49
2022-08-31T08:49:58.671Z,61.49
2022-08-31T08:55:04.110Z,59.97
2022-08-31T09:00:11.051Z,60.15
2022-08-31T09:05:12.568Z,59.93
2022-08-31T09:10:46.436Z,59.51
2022-08-31T09:16:09.315Z,58.33
2022-08-31T09:21:34.466Z,56.56
2022-08-31T09:27:17.281Z,55.79
2022-08-31T09:32:26.893Z,55.47
2022-08-31T09:37:38.113Z,55.22
2022-08-31T09:42:40.389Z,53.63
2022-08-31T09:47:53.470Z,53.27
2022-08-31T09:53:33.573Z,52.90
2022-08-31T09:58:35.086Z,54.07
2022-08-31T10:03:38.103Z,54.18
2022-08-31T10:08:46.191Z,52.86
2022-08-31T10:13:57.744Z,52.27
2022-08-31T10:19:09.754Z,51.92
2022-08-31T10:24:28.054Z,51.74
2022-08-31T10:29:40.223Z,52.12
2022-08-31T10:35:00.567Z,52.04
2022-08-31T10:40:10.166Z,51.91
2022-08-31T10:45:19.032Z,51.23
2022-08-31T10:50:45.097Z,51.13
2022-08-31T10:56:08.139Z,50.92
2022-08-31T11:01:34.628Z,50.42
2022-08-31T11:06:51.498Z,50.10
2022-08-31T11:12:04.974Z,50.43
2022-08-31T11:17:29.917Z,50.19
2022-08-31T11:22:38.163Z,49.37
2022-08-31T11:28:10.313Z,50.38
2022-08-31T11:33:20.336Z,49.85
2022-08-31T11:38:48.799Z,50.61
2022-08-31T11:43:52.254Z,49.85
2022-08-31T11:48:54.486Z,48.95
2022-08-31T11:53:56.238Z,49.29
2022-08-31T11:59:37.853Z,48.56
2022-08-31T12:04:43.412Z,48.07
2022-08-31T12:10:27.204Z,48.13
2022-08-31T12:15:51.365Z,48.17
2022-08-31T12:21:31.890Z,48.02
2022-08-31T12:26:45.543Z,48.36
2022-08-31T12:32:12.663Z,48.92
2022-08-31T12:37:19.143Z,49.23
2022-08-31T12:42:20.641Z,48.75
2022-08-31T12:47:56.003Z,48.42
2022-08-31T12:53:17.448Z,48.01
2022-08-31T12:58:56.420Z,48.66
2022-08-31T13:04:03.345Z,48.45
2022-08-31T13:09:05.560Z,49.29
2022-08-31T13:14:19.917Z,49.11
2022-08-31T13:19:28.013Z,49.18
2022-08-31T13:24:33.454Z,48.33
2022-08-31T13:29:41.189Z,48.09
2022-08-31T13:34:42.821Z,48.14
2022-08-31T13:39:46.440Z,47.42
2022-08-31T13:44:54.394Z,47.63
2022-08-31T13:50:13.249Z,47.30
2022-08-31T13:55:30.971Z,46.47
2022-08-31T14:00:32.434Z,47.28
2022-08-31T14:05:38.034Z,46.66
2022-08-31T14:10:49.560Z,46.63
2022-08-31T14:15:54.910Z,46.63
2022-08-31T14:21:26.653Z,46.10
2022-08-31T14:26:34.183Z,44.99
2022-08-31T14:31:51.999Z,45.74
2022-08-31T14:37:08.655Z,46.53
2022-08-31T14:42:27.142Z,45.76
2022-08-31T14:47:31.700Z,45.90
2022-08-31T14:52:38.724Z,46.02
2022-08-31T14:57:43.811Z,45.36
2022-08-31T15:02:49.603Z,45.44
2022-08-31T15:07:53.406Z,44.61
2022-08-31T15:12:55.675Z,44.48
2022-08-31T15:17:57.251Z,44.48
2022-08-31T15:22:59.031Z,44.57
2022-08-31T15:28:01.765Z,43.68
2022-08-31T15:33:03.283Z,44.72
2022-08-31T15:38:06.437Z,44.86
2022-08-31T15:43:15.065Z,45.02
2022-08-31T15:48:35.369Z,45.32
2022-08-31T15:53:37.954Z,45.41
2022-08-31T15:58:39.468Z,44.87
2022-08-31T16:03:41.977Z,48.74
2022-08-31T16:08:43.569Z,51.14
2022-08-31T16:13:52.118Z,52.97
2022-08-31T16:18:57.096Z,53.54
2022-08-31T16:24:01.006Z,54.13
2022-08-31T16:29:04.807Z,54.84
2022-08-31T16:34:06.810Z,55.61
2022-08-31T16:39:09.146Z,56.01
2022-08-31T16:44:19.675Z,56.43
2022-08-31T16:49:33.572Z,57.49
2022-08-31T16:54:41.222Z,58.37
2022-08-31T16:59:43.365Z,58.54
2022-08-31T17:04:52.525Z,58.55
2022-08-31T17:10:03.952Z,59.34
2022-08-31T17:15:06.096Z,60.28
2022-08-31T17:20:08.281Z,60.33
2022-08-31T17:25:09.961Z,61.11
2022-08-31T17:30:11.677Z,61.40
2022-08-31T17:35:18.025Z,61.69
2022-08-31T17:40:19.784Z,62.40
2022-08-31T17:45:21.559Z,62.56
2022-08-31T17:50:23.055Z,63.20
2022-08-31T17:55:24.586Z,63.35
2022-08-31T18:00:28.256Z,63.75
2022-08-31T18:05:29.826Z,63.74
2022-08-31T18:10:31.543Z,64.36
2022-08-31T18:15:33.885Z,65.13
2022-08-31T18:20:39.316Z,65.54
2022-08-31T18:25:42.240Z,65.66
2022-08-31T18:30:44.090Z,65.55
2022-08-31T18:35:46.569Z,66.34
2022-08-31T18:41:06.531Z,66.45
2022-08-31T18:46:09.125Z,67.38
2022-08-31T18:51:13.629Z,67.82
2022-08-31T18:56:18.147Z,68.73
2022-08-31T19:01:19.723Z,69.14
2022-08-31T19:06:24.919Z,69.75
2022-08-31T19:11:27.132Z,70.40
2022-08-31T19:16:29.017Z,71.16
2022-08-31T19:21:33.161Z,71.69
2022-08-31T19:26:38.317Z,72.46
2022-08-31T19:31:44.259Z,73.11
2022-08-31T19:36:50.299Z,73.62
2022-08-31T19:41:56.823Z,74.46
2022-08-31T19:46:59.863Z,74.98
2022-08-31T19:52:05.700Z,75.53
2022-08-31T19:57:08.891Z,76.31
2022-08-31T20:02:11.295Z,76.80
2022-08-31T20:07:13.554Z,77.14
2022-08-31T20:12:15.089Z,77.42
2022-08-31T20:17:16.730Z,77.79
2022-08-31T20:22:20.264Z,77.73
2022-08-31T20:27:21.765Z,77.98
2022-08-31T20:32:25.566Z,78.58
2022-08-31T20:37:27.076Z,78.34
2022-08-31T20:42:28.614Z,78.14
2022-08-31T20:47:48.471Z,77.54
2022-08-31T20:52:51.000Z,77.73
2022-08-31T20:57:52.674Z,78.08
2022-08-31T21:02:55.334Z,78.24
2022-08-31T21:07:57.279Z,78.63
2022-08-31T21:13:00.978Z,78.81
2022-08-31T21:18:02.494Z,78.99
2022-08-31T21:23:04.430Z,79.11
2022-08-31T21:28:06.925Z,79.49
2022-08-31T21:33:08.408Z,79.86
2022-08-31T21:38:12.979Z,80.17
2022-08-31T21:43:14.715Z,80.54
2022-08-31T21:48:16.236Z,80.78
2022-08-31T21:53:18.630Z,80.97
2022-08-31T21:58:20.181Z,81.48
2022-08-31T22:03:22.635Z,81.85
2022-08-31T22:08:26.050Z,82.35
2022-08-31T22:13:27.562Z,82.89
2022-08-31T22:23:58.349Z,83.75
2022-08-31T22:28:59.928Z,84.37
2022-08-31T22:34:01.415Z,84.81
2022-08-31T22:39:12.738Z,85.54
2022-08-31T22:44:17.824Z,85.73
2022-08-31T22:49:19.597Z,86.08
2022-08-31T22:54:22.696Z,86.42
2022-08-31T22:59:30.405Z,86.81
2022-08-31T23:04:34.350Z,87.48
2022-08-31T23:09:36.197Z,88.02
2022-08-31T23:14:38.210Z,88.36
2022-08-31T23:19:43.453Z,89.01
2022-08-31T23:24:47.711Z,89.35
2022-08-31T23:29:52.673Z,89.82
2022-08-31T23:34:56.897Z,89.93
2022-08-31T23:39:59.881Z,90.43
2022-08-31T23:45:02.057Z,91.15
2022-08-31T23:50:09.328Z,91.66
2022-08-31T23:55:11.088Z,91.88
